Kennebunk, ME (04043)

4:29 PM EDT on July 24, 2016 (GMT -0400)
Squire Ln. | | Change Station

Elev 95 ft 43.37 °N, 70.46 °W | Updated 6 minutes ago

Clear
Clear
79.3 °F
Feels Like 81 °F
N
2.2
Wind Variable Wind from SSW

Today
High -- | Low -- °F
--% Chance of Precip.
Yesterday
High -- | Low -- °F
Precip. -- in
Pressure 29.90 in
Visibility 10.0 miles
Clouds Clear
Heat Index 81 °F
Dew Point 66 °F
Humidity 63%
Rainfall 0.00 in
Snow Depth Not available.
5:24 AM 8:12 PM
Waning Gibbous, 73% visible
METAR KDAW 241951Z AUTO VRB06KT 10SM CLR 30/13 A2991 RMK AO2 SLP125 T03000128 TSNO
Pressure 29.90 in
Visibility 10.0 miles
Clouds Clear
Heat Index 81 °F
Dew Point 66 °F
Humidity 63%
Rainfall 0.00 in
Snow Depth Not available.
5:24 AM 8:12 PM
Waning Gibbous, 73% visible
METAR KDAW 241951Z AUTO VRB06KT 10SM CLR 30/13 A2991 RMK AO2 SLP125 T03000128 TSNO

10-Day Weather Forecast

Almanac

Astronomy

Jul. 24, 2016 Rise Set
Actual Time
Civil Twilight
Nautical Twilight
Astronomical Twilight
Moon
Length of Visible Light
Length of Day
Tomorrow will be .
, % of the Moon is Illuminated

Today's Extremes

State Highs State Lows

Community

WunderPhotos

Upload Photos

1,927,181 photos uploaded!

WunderBlog® & News

Nearby

Air Quality

  Air Quality AQ Index Pollutant
Not available.

Snow Depth

Station Depth Elevation

Earthquake Activity

City Distance Mag. Time & Date
Minimum magnitude displayed is 2.5.

Coastal Water Temperatures

Place Temperature

Stations

Nearby Weather Stations

Station Location Temp. Windchill Dew Point Humidity Wind Precip. Elev Updated Type
                   

Watches & Warnings

There are currently no watches in effect.